Time;durP1;ratioP1;P1;durP2;ratioP2;P2;SDS_P1;SDS_P2;PMS_P1;PMS_P2;Temp;Humidity;BMP_temperature;BMP_pressure;BME280_temperature;BME280_humidity;BME280_pressure;Samples;Min_cycle;Max_cycle;Signal;HPM_P1;HPM_P2
2022/08/03 00:02:24;;;;;;;4.07;1.80;;;19.70;99.90;;;;;;5017214;28;20068;-73
2022/08/03 00:04:49;;;;;;;5.22;2.38;;;19.60;99.90;;;;;;5017131;28;20504;-73
2022/08/03 00:07:15;;;;;;;3.85;1.88;;;19.60;99.90;;;;;;5034660;28;20041;-73
2022/08/03 00:09:41;;;;;;;3.97;2.17;;;19.60;99.90;;;;;;5034710;28;20082;-73
2022/08/03 00:12:07;;;;;;;3.40;1.75;;;19.60;99.90;;;;;;5034685;28;20092;-73
2022/08/03 00:14:33;;;;;;;3.75;1.90;;;19.50;99.90;;;;;;5017180;28;20091;-73
2022/08/03 00:16:59;;;;;;;3.85;2.20;;;19.40;99.90;;;;;;5034426;28;20458;-73
2022/08/03 00:19:25;;;;;;;4.75;2.13;;;19.30;99.90;;;;;;5016898;28;20090;-73
2022/08/03 00:21:50;;;;;;;4.88;2.05;;;19.10;99.90;;;;;;5034414;28;20049;-73
2022/08/03 00:24:16;;;;;;;4.20;1.88;;;19.10;99.90;;;;;;4984542;28;20045;-73
2022/08/03 00:26:42;;;;;;;4.35;1.85;;;19.00;99.90;;;;;;5016295;28;20566;-73
2022/08/03 00:29:08;;;;;;;3.40;1.58;;;18.90;99.90;;;;;;5017631;28;20060;-73
2022/08/03 00:31:33;;;;;;;3.10;1.70;;;18.90;99.90;;;;;;5033816;28;20086;-73
2022/08/03 00:33:59;;;;;;;4.40;2.17;;;18.90;99.90;;;;;;5000525;28;20049;-73
2022/08/03 00:36:25;;;;;;;5.07;1.90;;;18.80;99.90;;;;;;5034601;28;20104;-73
2022/08/03 00:38:51;;;;;;;4.13;1.95;;;18.90;99.90;;;;;;5017487;28;20378;-73
2022/08/03 00:41:16;;;;;;;6.18;2.38;;;18.80;99.90;;;;;;5016695;28;20045;-73
2022/08/03 00:43:43;;;;;;;5.05;2.10;;;18.70;99.90;;;;;;5034051;28;20041;-72
2022/08/03 00:46:09;;;;;;;5.20;1.90;;;18.60;99.90;;;;;;5034472;28;20055;-73
2022/08/03 00:48:35;;;;;;;4.10;1.95;;;18.50;99.90;;;;;;5000886;28;20124;-73
2022/08/03 00:51:01;;;;;;;4.32;2.42;;;18.40;99.90;;;;;;4999818;28;20128;-73
2022/08/03 00:53:27;;;;;;;3.58;1.95;;;18.50;99.90;;;;;;5033821;28;20045;-73
2022/08/03 00:55:53;;;;;;;3.67;1.98;;;18.50;99.90;;;;;;5016085;28;20128;-73
2022/08/03 00:58:19;;;;;;;4.90;2.30;;;18.60;99.90;;;;;;5033770;28;20128;-73
2022/08/03 01:00:45;;;;;;;5.28;2.13;;;18.80;99.90;;;;;;5000671;28;20100;-74
2022/08/03 01:03:11;;;;;;;2.53;1.90;;;18.90;99.90;;;;;;5016242;28;20045;-73
2022/08/03 01:05:57;;;;;;;5.65;2.30;;;19.00;99.90;;;;;;5016439;28;20437;-73
2022/08/03 01:08:49;;;;;;;3.10;1.88;;;19.00;99.90;;;;;;5033700;28;20132;-73
2022/08/03 01:11:23;;;;;;;3.65;2.30;;;19.10;99.90;;;;;;5034073;28;20064;-73
2022/08/03 01:14:02;;;;;;;3.67;1.90;;;19.00;99.90;;;;;;5015956;28;20137;-73
2022/08/03 01:16:36;;;;;;;3.55;2.10;;;19.00;99.90;;;;;;5015917;28;20057;-73
2022/08/03 01:19:28;;;;;;;5.20;2.22;;;19.10;99.90;;;;;;5033693;28;20465;-73
2022/08/03 01:22:03;;;;;;;3.60;2.20;;;19.10;99.90;;;;;;5016405;28;20042;-73
2022/08/03 01:25:06;;;;;;;5.22;2.22;;;19.10;99.90;;;;;;5016812;28;20466;-73
2022/08/03 01:27:58;;;;;;;6.50;2.53;;;19.10;99.90;;;;;;5016138;28;20115;-73
2022/08/03 01:30:31;;;;;;;3.88;2.10;;;19.10;99.90;;;;;;5033868;28;20399;-72
2022/08/03 01:33:02;;;;;;;4.20;2.10;;;19.10;99.90;;;;;;5033666;28;20060;-73
2022/08/03 01:35:32;;;;;;;6.43;2.20;;;19.00;99.90;;;;;;5016541;28;20041;-73
2022/08/03 01:38:10;;;;;;;4.95;2.08;;;19.00;99.90;;;;;;5015711;28;20131;-73
2022/08/03 01:40:40;;;;;;;4.70;2.40;;;19.10;99.90;;;;;;5033266;28;20042;-73
2022/08/03 01:43:08;;;;;;;4.10;2.35;;;19.00;99.90;;;;;;5015323;28;20081;-73
2022/08/03 01:45:36;;;;;;;3.53;2.42;;;19.00;99.90;;;;;;5033205;28;20038;-73
2022/08/03 01:48:04;;;;;;;4.85;2.00;;;19.00;99.90;;;;;;5015777;28;20124;-73
2022/08/03 01:50:33;;;;;;;5.05;2.50;;;19.00;99.90;;;;;;5016136;28;20493;-74
2022/08/03 01:52:59;;;;;;;6.32;2.58;;;19.00;99.90;;;;;;5015133;28;20131;-73
2022/08/03 01:55:28;;;;;;;7.85;2.53;;;19.00;99.90;;;;;;5016027;28;20100;-73
2022/08/03 01:57:55;;;;;;;4.70;2.53;;;18.90;99.90;;;;;;5032943;28;20046;-73
2022/08/03 02:00:22;;;;;;;4.35;2.20;;;18.80;99.90;;;;;;5015500;28;20064;-73
2022/08/03 02:02:49;;;;;;;4.07;2.40;;;18.70;99.90;;;;;;5032997;28;20045;-73
2022/08/03 02:05:18;;;;;;;6.07;2.50;;;18.60;99.90;;;;;;5015584;28;20184;-73
2022/08/03 02:07:46;;;;;;;4.75;2.47;;;18.60;99.90;;;;;;5032992;28;20037;-73
2022/08/03 02:10:14;;;;;;;4.65;2.40;;;18.40;99.90;;;;;;5015564;28;20493;-73
2022/08/03 02:12:44;;;;;;;4.97;2.60;;;18.40;99.90;;;;;;5015461;28;20057;-73
2022/08/03 02:15:11;;;;;;;4.60;2.30;;;18.30;99.90;;;;;;4999291;28;20137;-73
2022/08/03 02:17:38;;;;;;;4.78;2.03;;;18.30;99.90;;;;;;5033138;28;20085;-73
2022/08/03 02:20:05;;;;;;;5.88;2.40;;;18.30;99.90;;;;;;5032824;28;20116;-74
2022/08/03 02:22:32;;;;;;;4.05;2.30;;;18.30;99.90;;;;;;5032842;28;20133;-73
2022/08/03 02:24:58;;;;;;;3.92;2.20;;;18.30;99.90;;;;;;5032799;28;20371;-74
2022/08/03 02:27:26;;;;;;;4.30;2.30;;;18.20;99.90;;;;;;5033244;28;20062;-73
2022/08/03 02:30:14;;;;;;;4.63;2.20;;;18.20;99.90;;;;;;5032689;28;20057;-73
2022/08/03 02:32:45;;;;;;;5.90;2.35;;;18.20;99.90;;;;;;4998949;28;20100;-73
2022/08/03 02:35:14;;;;;;;4.57;2.40;;;18.20;99.90;;;;;;5032686;28;20132;-73
2022/08/03 02:37:43;;;;;;;4.88;2.35;;;18.10;99.90;;;;;;5015511;28;20049;-73
2022/08/03 02:40:10;;;;;;;4.95;2.40;;;18.10;99.90;;;;;;5032714;28;20050;-74
2022/08/03 02:42:38;;;;;;;4.18;2.40;;;18.00;99.90;;;;;;5015194;28;20053;-73
2022/08/03 02:45:08;;;;;;;3.92;2.53;;;18.00;99.90;;;;;;5032317;28;20497;-73
2022/08/03 02:47:36;;;;;;;4.28;2.22;;;17.90;99.90;;;;;;5032873;28;20050;-73
2022/08/03 02:50:03;;;;;;;3.72;2.03;;;17.90;99.90;;;;;;5014991;28;20049;-73
2022/08/03 02:52:32;;;;;;;4.05;2.10;;;18.00;99.90;;;;;;5032533;28;20065;-73
2022/08/03 02:55:01;;;;;;;4.95;2.55;;;17.90;99.90;;;;;;5035603;28;20041;-73
2022/08/03 02:57:29;;;;;;;4.93;2.53;;;17.90;99.90;;;;;;5018425;28;20149;-74
2022/08/03 02:59:57;;;;;;;4.43;2.30;;;18.00;99.90;;;;;;5018510;28;20080;-73
2022/08/03 03:02:23;;;;;;;6.07;2.88;;;18.10;99.90;;;;;;5036427;28;20408;-73
2022/08/03 03:04:52;;;;;;;5.25;2.38;;;18.10;99.90;;;;;;5018345;28;20571;-74
2022/08/03 03:07:19;;;;;;;5.03;2.58;;;18.20;99.90;;;;;;5036484;28;20046;-73
2022/08/03 03:09:45;;;;;;;4.30;2.10;;;18.20;99.90;;;;;;5018995;28;20077;-74
2022/08/03 03:12:12;;;;;;;5.05;2.47;;;18.20;99.90;;;;;;5035960;28;20163;-74
2022/08/03 03:14:39;;;;;;;5.03;2.20;;;18.20;99.90;;;;;;5034543;28;20128;-73
2022/08/03 03:17:10;;;;;;;4.78;2.50;;;18.30;99.90;;;;;;5035647;28;20050;-74
2022/08/03 03:19:37;;;;;;;4.53;2.15;;;18.30;99.90;;;;;;5035667;28;20061;-74
2022/08/03 03:22:05;;;;;;;5.25;2.05;;;18.30;99.90;;;;;;5035627;28;20046;-74
2022/08/03 03:24:32;;;;;;;3.08;2.30;;;18.30;99.90;;;;;;5018269;28;20100;-74
2022/08/03 03:26:58;;;;;;;3.15;2.10;;;18.40;99.90;;;;;;5034886;28;20065;-74
2022/08/03 03:29:24;;;;;;;5.70;2.13;;;18.40;99.90;;;;;;5035603;28;20390;-73
2022/08/03 03:31:50;;;;;;;3.80;2.03;;;18.40;99.90;;;;;;5017684;28;20132;-74
2022/08/03 03:34:16;;;;;;;5.03;1.95;;;18.40;99.90;;;;;;5035269;28;20519;-75
2022/08/03 03:36:42;;;;;;;5.50;2.10;;;18.30;99.90;;;;;;5035748;28;20045;-75
2022/08/03 03:39:09;;;;;;;5.97;2.25;;;18.30;99.90;;;;;;5017613;28;20072;-73
2022/08/03 03:41:35;;;;;;;4.82;2.00;;;18.20;99.90;;;;;;5035182;28;20128;-74
2022/08/03 03:44:01;;;;;;;4.57;2.10;;;18.20;99.90;;;;;;5002154;28;20124;-74
2022/08/03 03:46:27;;;;;;;5.07;2.30;;;18.20;99.90;;;;;;5035360;28;20034;-75
2022/08/03 03:48:53;;;;;;;3.72;2.10;;;18.10;99.90;;;;;;4984816;28;20478;-75
2022/08/03 03:51:18;;;;;;;6.40;2.42;;;18.10;99.90;;;;;;5034752;28;20104;-73
2022/08/03 03:53:58;;;;;;;5.03;2.22;;;18.10;99.90;;;;;;5034629;28;20049;-73
2022/08/03 03:56:24;;;;;;;3.58;1.88;;;18.00;99.90;;;;;;5034239;28;20042;-74
2022/08/03 03:58:50;;;;;;;3.75;1.80;;;18.00;99.90;;;;;;5017350;28;20085;-74
2022/08/03 04:01:16;;;;;;;3.72;1.88;;;18.00;99.90;;;;;;5035290;28;20088;-74
2022/08/03 04:03:42;;;;;;;4.70;1.98;;;17.90;99.90;;;;;;5016972;28;20057;-74
2022/08/03 04:11:40;;;;;;;3.47;1.80;;;17.80;99.90;;;;;;5035338;28;20060;-74
2022/08/03 04:14:11;;;;;;;4.72;2.25;;;17.80;99.90;;;;;;5017172;28;20042;-74
2022/08/03 04:16:43;;;;;;;5.10;2.10;;;17.80;99.90;;;;;;5035095;28;20085;-73
2022/08/03 04:19:26;;;;;;;6.03;1.98;;;17.80;99.90;;;;;;5034651;28;20080;-74
2022/08/03 04:21:57;;;;;;;4.68;1.90;;;17.80;99.90;;;;;;5035225;28;20418;-73
2022/08/03 04:24:26;;;;;;;5.47;2.05;;;17.70;99.90;;;;;;5017758;28;20123;-73
2022/08/03 04:26:54;;;;;;;5.40;1.73;;;17.70;99.90;;;;;;5016463;28;20049;-73
2022/08/03 04:29:21;;;;;;;5.65;1.90;;;17.80;99.90;;;;;;5016931;28;20474;-73
2022/08/03 04:31:47;;;;;;;3.92;1.92;;;17.80;99.90;;;;;;5017655;28;20056;-73
2022/08/03 04:34:13;;;;;;;5.80;1.90;;;17.80;99.90;;;;;;5017217;28;20049;-73
2022/08/03 04:36:48;;;;;;;3.85;2.10;;;17.90;99.90;;;;;;5034150;28;20055;-73
2022/08/03 04:39:22;;;;;;;5.17;1.93;;;17.90;99.90;;;;;;5034233;28;20183;-73
2022/08/03 04:41:48;;;;;;;5.32;2.15;;;18.00;99.90;;;;;;5034228;28;20045;-73
2022/08/03 04:44:15;;;;;;;5.15;2.10;;;18.00;99.90;;;;;;5034097;28;20053;-73
2022/08/03 04:46:43;;;;;;;3.00;1.83;;;18.10;99.90;;;;;;5016363;28;20475;-74
2022/08/03 04:49:09;;;;;;;5.07;2.25;;;18.20;99.90;;;;;;5016572;28;20053;-74
2022/08/03 04:51:37;;;;;;;4.82;2.33;;;18.30;99.90;;;;;;5034493;28;20050;-73
2022/08/03 04:54:03;;;;;;;5.82;2.03;;;18.40;99.90;;;;;;5033899;28;20126;-74
2022/08/03 04:56:29;;;;;;;4.25;2.20;;;18.50;99.90;;;;;;5033381;28;20041;-75
2022/08/03 04:58:55;;;;;;;4.43;2.28;;;18.50;99.90;;;;;;5016231;28;20076;-74
2022/08/03 05:01:21;;;;;;;3.63;2.10;;;18.60;99.90;;;;;;5033722;28;20490;-75
2022/08/03 05:03:47;;;;;;;4.45;2.13;;;18.60;99.90;;;;;;5016305;28;20111;-74
2022/08/03 05:06:13;;;;;;;6.75;2.20;;;18.70;99.90;;;;;;5016103;28;20510;-74
2022/08/03 05:08:38;;;;;;;4.22;2.00;;;18.70;99.90;;;;;;5016174;28;20095;-74
2022/08/03 05:11:04;;;;;;;4.80;2.20;;;18.70;99.90;;;;;;5015923;28;20094;-75
2022/08/03 05:13:30;;;;;;;5.18;2.05;;;18.80;99.90;;;;;;5016230;28;20072;-74
2022/08/03 05:15:56;;;;;;;5.32;2.45;;;18.80;99.90;;;;;;5033163;28;20041;-74
2022/08/03 05:18:21;;;;;;;5.88;2.40;;;18.90;99.90;;;;;;5016006;28;20053;-74
2022/08/03 05:20:47;;;;;;;5.32;2.20;;;19.00;99.90;;;;;;5033409;28;20041;-74
2022/08/03 05:23:13;;;;;;;4.03;2.40;;;19.00;99.90;;;;;;5016848;28;20076;-74
2022/08/03 05:25:38;;;;;;;4.15;2.10;;;19.20;99.90;;;;;;5016057;28;20150;-74
2022/08/03 05:28:04;;;;;;;5.53;2.33;;;19.20;99.90;;;;;;5033492;28;20061;-74
2022/08/03 05:30:30;;;;;;;6.07;2.42;;;19.30;99.90;;;;;;5033846;28;20046;-73
2022/08/03 05:32:55;;;;;;;5.43;2.35;;;19.30;99.90;;;;;;5034126;28;20092;-74
2022/08/03 05:35:24;;;;;;;5.65;2.47;;;19.40;99.90;;;;;;5015786;28;20083;-74
2022/08/03 05:37:50;;;;;;;4.40;2.60;;;19.50;99.90;;;;;;5033315;28;20049;-75
2022/08/03 05:40:15;;;;;;;8.38;2.55;;;19.50;99.90;;;;;;5016366;28;20080;-74
2022/08/03 05:42:41;;;;;;;4.68;2.38;;;19.60;99.90;;;;;;5015659;28;20442;-74
2022/08/03 05:45:13;;;;;;;8.13;2.42;;;19.70;99.90;;;;;;5015766;28;20081;-74
2022/08/03 05:47:40;;;;;;;6.97;2.50;;;19.70;99.90;;;;;;5000070;28;20063;-73
2022/08/03 05:50:06;;;;;;;5.45;2.22;;;19.80;99.90;;;;;;5033094;28;20119;-74
2022/08/03 05:52:32;;;;;;;7.28;2.58;;;19.90;99.90;;;;;;5033028;28;20048;-73
2022/08/03 05:54:58;;;;;;;5.05;2.42;;;20.00;99.90;;;;;;5033849;28;20455;-73
2022/08/03 05:57:26;;;;;;;6.85;2.60;;;20.00;99.90;;;;;;5032979;28;20389;-74
2022/08/03 05:59:52;;;;;;;5.68;2.17;;;20.10;99.90;;;;;;5015599;28;20081;-75
2022/08/03 06:02:17;;;;;;;4.93;2.33;;;20.20;99.90;;;;;;4999291;28;20525;-74
2022/08/03 06:04:43;;;;;;;7.55;2.30;;;20.20;99.90;;;;;;5015502;28;20390;-74
2022/08/03 06:07:08;;;;;;;6.70;2.83;;;20.30;99.90;;;;;;5033545;28;20545;-73
2022/08/03 06:09:34;;;;;;;3.83;1.90;;;20.20;99.90;;;;;;5015291;28;20371;-74
2022/08/03 06:12:00;;;;;;;4.68;2.75;;;20.20;99.90;;;;;;5033158;28;20402;-75
2022/08/03 06:14:25;;;;;;;4.60;2.00;;;20.30;99.90;;;;;;5015714;28;20474;-74
2022/08/03 06:16:51;;;;;;;3.78;2.20;;;20.40;99.90;;;;;;4998458;28;20482;-66
2022/08/03 06:19:17;;;;;;;6.45;2.72;;;20.40;99.90;;;;;;5032744;28;20050;-66
2022/08/03 06:21:42;;;;;;;6.45;2.60;;;20.50;99.90;;;;;;5032774;28;20045;-65
2022/08/03 06:24:08;;;;;;;4.85;2.50;;;20.50;99.90;;;;;;5016078;28;20053;-66
2022/08/03 06:26:34;;;;;;;4.80;2.30;;;20.60;99.90;;;;;;5032803;28;20070;-66
2022/08/03 06:29:00;;;;;;;6.57;2.85;;;20.70;99.90;;;;;;5034523;28;20112;-66
2022/08/03 06:31:28;;;;;;;4.35;2.30;;;20.80;99.90;;;;;;5036458;28;20048;-65
2022/08/03 06:33:53;;;;;;;4.25;2.25;;;20.90;99.90;;;;;;5036504;28;20057;-66
2022/08/03 06:36:19;;;;;;;4.10;2.10;;;21.00;99.90;;;;;;5036368;28;20041;-65
2022/08/03 06:38:45;;;;;;;8.02;2.60;;;21.00;99.90;;;;;;5036960;28;20049;-65
2022/08/03 06:41:11;;;;;;;6.07;2.30;;;21.10;99.90;;;;;;5037088;28;20133;-65
2022/08/03 06:43:37;;;;;;;8.55;2.65;;;21.10;99.90;;;;;;5036343;28;20508;-65
2022/08/03 06:46:04;;;;;;;5.45;2.20;;;21.20;99.90;;;;;;5036445;28;20046;-65
2022/08/03 06:48:30;;;;;;;5.15;2.42;;;21.20;99.90;;;;;;5036862;28;20413;-66
2022/08/03 06:50:56;;;;;;;5.20;2.38;;;21.20;99.90;;;;;;5018807;28;20049;-66
2022/08/03 06:53:21;;;;;;;6.72;2.38;;;21.30;99.90;;;;;;5036739;28;20045;-66
2022/08/03 06:55:47;;;;;;;4.53;2.33;;;21.30;99.90;;;;;;5036632;28;20045;-66
2022/08/03 06:58:13;;;;;;;6.85;2.50;;;21.40;99.90;;;;;;5036073;28;20052;-66
2022/08/03 07:00:38;;;;;;;7.03;2.33;;;21.50;99.90;;;;;;5036247;28;20052;-66
2022/08/03 07:03:04;;;;;;;5.75;2.28;;;21.40;99.90;;;;;;5035976;28;20088;-65
2022/08/03 07:05:32;;;;;;;7.43;2.55;;;21.40;99.90;;;;;;5035867;28;20125;-66
2022/08/03 07:07:58;;;;;;;7.53;2.30;;;21.40;99.90;;;;;;5018078;28;20056;-66
2022/08/03 07:10:24;;;;;;;4.38;1.98;;;21.40;99.90;;;;;;5017609;28;20049;-66
2022/08/03 07:12:49;;;;;;;6.00;2.35;;;21.40;99.90;;;;;;5036143;28;20171;-66
2022/08/03 07:15:17;;;;;;;5.32;2.10;;;21.50;99.90;;;;;;5035613;28;20049;-67
2022/08/03 07:17:42;;;;;;;6.88;2.50;;;21.50;99.90;;;;;;5036291;28;20042;-67
2022/08/03 07:20:08;;;;;;;5.97;2.60;;;21.60;99.90;;;;;;5017936;28;20041;-66
2022/08/03 07:22:35;;;;;;;6.53;2.33;;;21.60;99.90;;;;;;5035276;28;20038;-65
2022/08/03 07:25:01;;;;;;;9.10;2.63;;;21.70;99.90;;;;;;5035430;28;20553;-66
2022/08/03 07:27:28;;;;;;;6.30;2.40;;;21.80;99.90;;;;;;5017924;28;20057;-66
2022/08/03 07:29:54;;;;;;;5.07;2.13;;;21.80;99.90;;;;;;5035426;28;20128;-66
2022/08/03 07:32:20;;;;;;;5.38;2.20;;;21.80;99.90;;;;;;5035429;28;20120;-66
2022/08/03 07:34:45;;;;;;;5.60;2.30;;;21.80;99.90;;;;;;5035351;28;20513;-65
2022/08/03 07:37:11;;;;;;;8.80;2.10;;;21.90;99.90;;;;;;5017398;28;20042;-66
2022/08/03 07:39:37;;;;;;;7.72;2.85;;;21.90;99.90;;;;;;5017364;28;20049;-66
2022/08/03 07:42:02;;;;;;;7.30;2.30;;;22.00;99.90;;;;;;5035187;28;20084;-66
2022/08/03 07:44:28;;;;;;;7.20;2.35;;;22.00;99.90;;;;;;5035206;28;20123;-66
2022/08/03 07:46:54;;;;;;;5.57;2.40;;;22.20;99.90;;;;;;5001823;28;20081;-67
2022/08/03 07:49:19;;;;;;;7.03;2.30;;;22.30;99.90;;;;;;5035027;28;20075;-66
2022/08/03 07:52:46;;;;;;;7.75;2.55;;;22.30;99.90;;;;;;5034990;28;20128;-66
2022/08/03 07:54:31;;;;;;;5.85;2.40;;;22.30;99.90;;;;;;5035437;28;20115;-66
2022/08/03 07:56:56;;;;;;;4.47;2.25;;;22.20;99.90;;;;;;5017387;28;20045;-66
2022/08/03 07:59:22;;;;;;;5.25;2.20;;;22.30;99.90;;;;;;5034766;28;20049;-66
2022/08/03 08:01:47;;;;;;;7.18;2.00;;;22.40;99.90;;;;;;5034913;28;20046;-65
2022/08/03 08:04:13;;;;;;;9.57;2.65;;;22.40;99.90;;;;;;5034852;28;20049;-65
2022/08/03 08:06:39;;;;;;;4.43;2.10;;;22.40;99.90;;;;;;5034733;28;20132;-65
2022/08/03 08:09:04;;;;;;;8.48;2.28;;;22.40;99.90;;;;;;5017502;28;20144;-65
2022/08/03 08:11:30;;;;;;;4.68;2.03;;;22.60;99.90;;;;;;5017794;28;20049;-66
2022/08/03 08:13:56;;;;;;;6.13;2.15;;;22.70;99.90;;;;;;5034856;28;20045;-66
2022/08/03 08:16:21;;;;;;;4.07;1.88;;;22.70;99.90;;;;;;5035255;28;20429;-66
2022/08/03 08:18:47;;;;;;;7.85;2.58;;;22.90;99.90;;;;;;5017283;28;20049;-70
2022/08/03 08:21:12;;;;;;;5.05;2.20;;;23.00;99.90;;;;;;5034050;28;20057;-66
2022/08/03 08:23:38;;;;;;;5.30;1.83;;;23.20;99.90;;;;;;5034621;28;20087;-66
2022/08/03 08:26:04;;;;;;;5.43;2.40;;;23.20;99.90;;;;;;5034090;28;20049;-66
2022/08/03 08:28:29;;;;;;;7.90;2.13;;;23.40;99.90;;;;;;5034213;28;20053;-66
2022/08/03 08:30:55;;;;;;;8.93;1.98;;;23.40;99.90;;;;;;5016620;28;20048;-66
2022/08/03 08:33:21;;;;;;;6.00;2.35;;;23.60;99.90;;;;;;5034175;28;20046;-66
2022/08/03 08:35:46;;;;;;;6.85;1.95;;;23.60;99.90;;;;;;5034815;28;20154;-66
2022/08/03 08:38:12;;;;;;;7.63;2.22;;;23.80;99.90;;;;;;5034625;28;20482;-66
2022/08/03 08:40:38;;;;;;;7.25;2.30;;;23.90;99.90;;;;;;5033950;28;20448;-66
2022/08/03 08:43:03;;;;;;;4.68;2.10;;;23.90;99.90;;;;;;5033718;28;20045;-66
2022/08/03 08:45:29;;;;;;;5.63;2.20;;;24.00;99.90;;;;;;5033819;28;20053;-66
2022/08/03 08:47:57;;;;;;;6.82;2.53;;;24.10;99.90;;;;;;5034010;28;20037;-66
2022/08/03 08:50:22;;;;;;;5.78;2.20;;;24.10;99.90;;;;;;5033517;28;20486;-66
2022/08/03 08:52:50;;;;;;;7.95;2.13;;;24.20;99.90;;;;;;5033400;28;20053;-67
2022/08/03 08:55:21;;;;;;;7.07;2.17;;;24.20;99.90;;;;;;5033834;28;20065;-66
2022/08/03 08:57:56;;;;;;;7.20;2.08;;;24.30;99.90;;;;;;5033843;28;20057;-66
2022/08/03 09:00:22;;;;;;;6.95;2.03;;;24.40;99.90;;;;;;5034399;28;20056;-66
2022/08/03 09:02:47;;;;;;;8.35;2.20;;;24.50;99.90;;;;;;5033691;28;20478;-66
2022/08/03 09:05:18;;;;;;;8.68;2.65;;;24.60;99.90;;;;;;5033659;28;20128;-66
2022/08/03 09:07:45;;;;;;;4.85;2.50;;;24.70;99.90;;;;;;5034020;28;20052;-66
2022/08/03 09:10:12;;;;;;;5.80;1.80;;;24.70;99.90;;;;;;5033880;28;20179;-66
2022/08/03 09:12:43;;;;;;;6.63;2.40;;;24.70;99.90;;;;;;5033622;28;20495;-66
2022/08/03 09:15:21;;;;;;;6.43;2.20;;;24.80;99.90;;;;;;5015908;28;20124;-67
2022/08/03 09:17:48;;;;;;;6.65;2.10;;;24.80;99.90;;;;;;5015951;28;20050;-66
2022/08/03 09:20:14;;;;;;;6.57;2.22;;;24.80;99.90;;;;;;5033504;28;20053;-66
2022/08/03 09:22:56;;;;;;;7.32;2.25;;;24.90;99.90;;;;;;5034225;28;20156;-66
2022/08/03 09:25:33;;;;;;;6.85;2.05;;;24.90;99.90;;;;;;5033114;28;20049;-66
2022/08/03 09:28:07;;;;;;;7.95;2.10;;;25.00;99.90;;;;;;5033701;28;20045;-66
2022/08/03 09:30:33;;;;;;;6.22;1.95;;;24.90;99.90;;;;;;5016562;28;20049;-66
2022/08/03 09:33:07;;;;;;;5.38;2.00;;;25.00;99.90;;;;;;5033627;28;20053;-66
2022/08/03 09:35:45;;;;;;;7.40;2.40;;;25.00;99.90;;;;;;5033245;28;20085;-66
2022/08/03 09:38:18;;;;;;;6.13;2.15;;;25.10;99.90;;;;;;5033816;28;20045;-66
2022/08/03 09:40:45;;;;;;;6.35;2.15;;;25.20;99.90;;;;;;5033258;28;20041;-66
2022/08/03 09:43:11;;;;;;;8.25;2.17;;;25.40;99.90;;;;;;5032837;28;20506;-66
2022/08/03 09:45:38;;;;;;;8.25;2.30;;;25.40;99.90;;;;;;5033163;28;20037;-66
2022/08/03 09:48:28;;;;;;;10.02;2.97;;;25.50;99.90;;;;;;5015716;28;20056;-66
2022/08/03 09:50:56;;;;;;;5.45;2.00;;;25.60;99.90;;;;;;5015605;28;20091;-67
2022/08/03 09:53:23;;;;;;;5.55;1.80;;;25.70;99.90;;;;;;5033544;28;20052;-66
2022/08/03 09:55:54;;;;;;;8.07;2.30;;;25.70;99.90;;;;;;5014769;28;20040;-65
2022/08/03 09:58:20;;;;;;;7.57;2.22;;;25.70;99.90;;;;;;5033455;28;20041;-67
2022/08/03 10:00:58;;;;;;;6.57;2.00;;;25.70;99.90;;;;;;5015731;28;20362;-66
2022/08/03 10:03:25;;;;;;;9.63;2.67;;;25.80;99.90;;;;;;5034427;28;20136;-66
2022/08/03 10:05:51;;;;;;;7.55;1.60;;;25.90;99.90;;;;;;5036940;28;20398;-66
2022/08/03 10:08:18;;;;;;;6.00;1.92;;;25.90;99.90;;;;;;5037007;28;20045;-66
2022/08/03 10:10:46;;;;;;;7.30;2.30;;;26.00;99.90;;;;;;5037423;28;20046;-65
2022/08/03 10:13:17;;;;;;;8.25;1.92;;;26.10;99.90;;;;;;5036849;28;20141;-66
2022/08/03 10:15:44;;;;;;;5.68;1.80;;;26.10;99.90;;;;;;5037464;28;20077;-67
2022/08/03 10:18:10;;;;;;;8.38;1.83;;;26.10;99.90;;;;;;5036709;28;20394;-66
2022/08/03 10:20:42;;;;;;;8.40;2.08;;;26.10;99.90;;;;;;5037333;28;20049;-66
2022/08/03 10:23:09;;;;;;;5.25;2.17;;;26.20;99.90;;;;;;5019793;28;20382;-67
2022/08/03 10:25:37;;;;;;;6.40;2.10;;;26.30;99.90;;;;;;5037048;28;20045;-65
2022/08/03 10:28:04;;;;;;;4.50;1.83;;;26.40;99.90;;;;;;5036247;28;20493;-66
2022/08/03 10:30:32;;;;;;;5.93;2.00;;;26.50;99.90;;;;;;5037062;28;20054;-67
2022/08/03 10:33:04;;;;;;;9.73;2.22;;;26.60;99.90;;;;;;5019051;28;20485;-65
2022/08/03 10:35:30;;;;;;;4.57;1.67;;;26.70;99.90;;;;;;5019284;28;20049;-66
2022/08/03 10:38:11;;;;;;;3.60;1.50;;;26.80;99.90;;;;;;5036534;28;20370;-65
2022/08/03 10:40:38;;;;;;;5.85;1.80;;;26.90;99.90;;;;;;5036646;28;20041;-66
2022/08/03 10:43:17;;;;;;;8.20;1.83;;;26.90;99.90;;;;;;5036343;28;20056;-66
2022/08/03 10:45:44;;;;;;;4.60;1.58;;;27.10;99.90;;;;;;5036371;28;20049;-65
2022/08/03 10:48:11;;;;;;;6.57;1.75;;;27.00;99.90;;;;;;5036177;28;20268;-67
2022/08/03 10:50:39;;;;;;;6.30;1.92;;;27.10;99.90;;;;;;5036130;28;20053;-66
2022/08/03 10:53:06;;;;;;;4.03;1.52;;;27.20;99.90;;;;;;5036890;28;20123;-66
2022/08/03 10:58:51;;;;;;;25.00;3.65;;;27.30;99.90;;;;;;5036615;28;20060;-66
2022/08/03 11:01:18;;;;;;;11.43;2.47;;;27.40;99.90;;;;;;5035884;28;20045;-66
2022/08/03 11:03:53;;;;;;;6.85;1.77;;;27.40;99.90;;;;;;5018500;28;20128;-66
2022/08/03 11:06:21;;;;;;;5.72;1.58;;;27.40;99.90;;;;;;5035967;28;20048;-66
2022/08/03 11:08:48;;;;;;;6.00;1.73;;;27.50;99.90;;;;;;5035817;28;20041;-66
2022/08/03 11:11:17;;;;;;;4.95;1.58;;;27.50;99.90;;;;;;5018047;28;20120;-66
2022/08/03 11:13:58;;;;;;;8.25;1.88;;;27.60;99.90;;;;;;5035385;28;20557;-66
2022/08/03 11:16:26;;;;;;;6.18;1.40;;;27.70;99.90;;;;;;5036281;28;20128;-66
2022/08/03 11:18:59;;;;;;;5.93;1.80;;;27.80;99.90;;;;;;5035560;28;20045;-66
2022/08/03 11:21:47;;;;;;;6.18;1.73;;;27.80;99.90;;;;;;5017856;28;20052;-66
2022/08/03 11:24:50;;;;;;;8.43;1.70;;;28.00;99.90;;;;;;5035508;28;20053;-65
2022/08/03 11:27:21;;;;;;;8.70;1.60;;;28.00;99.90;;;;;;5035932;28;20064;-65
2022/08/03 11:30:01;;;;;;;6.57;1.77;;;28.10;99.90;;;;;;5035498;28;20115;-66
2022/08/03 11:32:47;;;;;;;6.18;1.40;;;28.20;99.90;;;;;;5035407;28;20548;-65
2022/08/03 11:35:20;;;;;;;6.47;1.73;;;28.20;99.90;;;;;;5018413;28;20426;-65
2022/08/03 11:38:01;;;;;;;8.00;2.00;;;28.30;99.90;;;;;;5035592;28;20050;-65
2022/08/03 11:40:37;;;;;;;5.95;2.10;;;28.20;99.90;;;;;;5035910;28;20367;-65
2022/08/03 11:43:21;;;;;;;5.35;1.60;;;28.30;99.90;;;;;;5017802;28;20049;-66
2022/08/03 11:46:07;;;;;;;4.70;1.48;;;28.20;99.90;;;;;;5018502;28;20466;-65
2022/08/03 11:48:32;;;;;;;4.95;1.40;;;28.20;99.90;;;;;;5035092;28;20064;-66
2022/08/03 11:51:06;;;;;;;5.15;1.50;;;28.30;99.90;;;;;;5035061;28;20482;-66
2022/08/03 11:53:32;;;;;;;7.57;1.80;;;28.50;99.90;;;;;;5035379;28;20049;-66
2022/08/03 11:56:01;;;;;;;6.75;1.75;;;28.60;99.90;;;;;;5034839;28;20048;-66
2022/08/03 11:58:27;;;;;;;4.63;1.65;;;28.60;99.90;;;;;;5034943;28;20077;-67
2022/08/03 12:01:03;;;;;;;5.63;1.50;;;28.60;99.90;;;;;;5034905;28;20140;-65
2022/08/03 12:03:32;;;;;;;5.35;1.63;;;28.60;99.90;;;;;;5035630;28;20436;-66
2022/08/03 12:06:00;;;;;;;5.18;1.60;;;28.60;99.90;;;;;;5034820;28;20048;-66
2022/08/03 12:08:26;;;;;;;4.55;1.60;;;28.60;99.90;;;;;;5034716;28;20049;-65
2022/08/03 12:10:52;;;;;;;6.95;1.90;;;28.60;99.90;;;;;;5016995;28;20482;-65
2022/08/03 12:13:19;;;;;;;6.95;1.67;;;28.70;99.90;;;;;;5035168;28;20045;-65
2022/08/03 12:15:53;;;;;;;5.45;1.90;;;28.70;99.90;;;;;;5034553;28;20387;-66
2022/08/03 12:18:20;;;;;;;6.72;1.60;;;28.70;99.90;;;;;;5035093;28;20091;-66
2022/08/03 12:20:51;;;;;;;6.38;1.65;;;28.80;99.90;;;;;;5034489;28;20107;-66
2022/08/03 12:23:18;;;;;;;5.70;1.40;;;28.70;99.90;;;;;;5034514;28;20038;-65
2022/08/03 12:25:46;;;;;;;7.07;1.55;;;28.90;99.90;;;;;;5033621;28;20560;-66
2022/08/03 12:28:18;;;;;;;5.15;1.70;;;28.90;99.90;;;;;;5034582;28;20080;-65
2022/08/03 12:30:46;;;;;;;5.28;1.20;;;28.80;99.90;;;;;;5034816;28;20045;-65
2022/08/03 12:33:13;;;;;;;6.00;1.70;;;28.80;99.90;;;;;;5016647;28;20089;-65
2022/08/03 12:35:39;;;;;;;3.63;1.17;;;28.90;99.90;;;;;;5034174;28;20048;-65
2022/08/03 12:38:05;;;;;;;3.67;1.10;;;28.90;99.90;;;;;;5034077;28;20124;-66
2022/08/03 12:40:31;;;;;;;5.30;1.30;;;28.90;99.90;;;;;;5034146;28;20167;-65
2022/08/03 12:42:57;;;;;;;4.65;1.30;;;29.00;99.90;;;;;;5034573;28;20089;-65
2022/08/03 12:45:25;;;;;;;6.15;1.27;;;29.00;99.90;;;;;;5016576;28;20045;-66
2022/08/03 12:47:52;;;;;;;4.97;1.25;;;29.10;99.90;;;;;;5017319;28;20050;-66
2022/08/03 12:50:44;;;;;;;7.05;1.48;;;29.20;99.90;;;;;;5033972;28;20132;-66
2022/08/03 12:53:09;;;;;;;6.47;1.52;;;29.30;99.90;;;;;;5030185;28;20065;-66
2022/08/03 12:55:37;;;;;;;5.15;1.30;;;29.20;99.90;;;;;;5033669;28;20045;-65
2022/08/03 12:58:06;;;;;;;5.18;1.35;;;29.20;99.90;;;;;;5034032;28;20601;-66
2022/08/03 13:00:32;;;;;;;5.20;1.60;;;29.30;99.90;;;;;;5033808;28;20405;-66
2022/08/03 13:03:07;;;;;;;7.53;1.60;;;29.40;99.90;;;;;;5033427;28;20049;-65